sensor_id;sensor_type;location;lat;lon;timestamp;P1;P2;P0
79038;PMS5003;68436;55.068;73.284;2023-04-25T08:52:32;72.00;53.00;32.33
79038;PMS5003;68436;55.068;73.284;2023-04-25T08:55:01;16.00;13.00;8.00
79038;PMS5003;68436;55.068;73.284;2023-04-25T08:57:48;28.67;22.67;14.00
79038;PMS5003;68436;55.068;73.284;2023-04-25T09:00:16;29.75;20.25;11.00
79038;PMS5003;68436;55.068;73.284;2023-04-25T09:02:44;25.00;19.33;12.00
79038;PMS5003;68436;55.068;73.284;2023-04-25T09:05:21;27.75;23.00;15.75
79038;PMS5003;68436;55.068;73.284;2023-04-25T09:07:51;46.00;37.25;24.00
79038;PMS5003;68436;55.068;73.284;2023-04-25T09:10:27;39.75;31.00;19.50
79038;PMS5003;68436;55.068;73.284;2023-04-25T09:13:14;32.33;23.00;14.00
79038;PMS5003;68436;55.068;73.284;2023-04-25T09:16:03;33.00;26.00;17.00
79038;PMS5003;68436;55.068;73.284;2023-04-25T09:21:56;39.00;30.00;19.33
79038;PMS5003;68436;55.068;73.284;2023-04-25T09:24:44;16.00;15.00;11.00
79038;PMS5003;68436;55.068;73.284;2023-04-25T09:30:15;52.00;42.00;27.00
79038;PMS5003;68436;55.068;73.284;2023-04-25T09:33:04;80.00;67.50;40.00
79038;PMS5003;68436;55.068;73.284;2023-04-25T09:35:34;67.75;52.50;32.50
79038;PMS5003;68436;55.068;73.284;2023-04-25T09:38:12;80.00;65.00;39.00
79038;PMS5003;68436;55.068;73.284;2023-04-25T09:41:22;57.00;46.00;31.00
79038;PMS5003;68436;55.068;73.284;2023-04-25T09:44:07;64.50;50.75;31.75
79038;PMS5003;68436;55.068;73.284;2023-04-25T09:46:46;68.33;52.00;32.00
79038;PMS5003;68436;55.068;73.284;2023-04-25T09:49:20;74.50;58.25;35.25
79038;PMS5003;68436;55.068;73.284;2023-04-25T09:52:07;78.00;62.33;37.67
79038;PMS5003;68436;55.068;73.284;2023-04-25T09:54:51;21.00;19.00;14.00
79038;PMS5003;68436;55.068;73.284;2023-04-25T09:57:24;14.00;13.00;9.00
79038;PMS5003;68436;55.068;73.284;2023-04-25T10:00:01;15.00;13.00;9.00
79038;PMS5003;68436;55.068;73.284;2023-04-25T10:06:17;37.25;30.00;19.25
79038;PMS5003;68436;55.068;73.284;2023-04-25T10:08:44;48.75;40.25;26.75
79038;PMS5003;68436;55.068;73.284;2023-04-25T10:11:13;61.50;48.00;30.00
79038;PMS5003;68436;55.068;73.284;2023-04-25T10:13:41;65.00;51.00;32.33
79038;PMS5003;68436;55.068;73.284;2023-04-25T10:16:07;72.25;57.50;34.00
79038;PMS5003;68436;55.068;73.284;2023-04-25T10:18:33;64.75;50.75;31.75
79038;PMS5003;68436;55.068;73.284;2023-04-25T10:21:01;44.00;35.00;22.75
79038;PMS5003;68436;55.068;73.284;2023-04-25T10:23:38;13.00;12.67;9.00
79038;PMS5003;68436;55.068;73.284;2023-04-25T10:26:04;11.00;10.00;7.00
79038;PMS5003;68436;55.068;73.284;2023-04-25T10:28:30;13.00;11.00;7.00
79038;PMS5003;68436;55.068;73.284;2023-04-25T10:31:27;14.00;13.00;9.00
79038;PMS5003;68436;55.068;73.284;2023-04-25T10:34:11;63.25;48.50;30.00
79038;PMS5003;68436;55.068;73.284;2023-04-25T10:36:50;35.50;28.50;18.00
79038;PMS5003;68436;55.068;73.284;2023-04-25T10:39:21;8.00;7.00;5.00
79038;PMS5003;68436;55.068;73.284;2023-04-25T10:44:13;11.00;9.00;6.00
79038;PMS5003;68436;55.068;73.284;2023-04-25T10:46:44;38.50;31.50;20.00
79038;PMS5003;68436;55.068;73.284;2023-04-25T10:52:43;34.00;26.00;15.33
79038;PMS5003;68436;55.068;73.284;2023-04-25T11:00:17;19.00;17.50;11.00
79038;PMS5003;68436;55.068;73.284;2023-04-25T11:02:48;48.75;38.00;23.00
79038;PMS5003;68436;55.068;73.284;2023-04-25T11:05:36;10.75;10.00;7.00
79038;PMS5003;68436;55.068;73.284;2023-04-25T11:08:02;13.00;11.00;7.00
79038;PMS5003;68436;55.068;73.284;2023-04-25T11:10:39;33.25;28.50;18.50
79038;PMS5003;68436;55.068;73.284;2023-04-25T11:13:05;6.75;6.00;4.00
79038;PMS5003;68436;55.068;73.284;2023-04-25T11:15:36;6.00;5.00;4.00
79038;PMS5003;68436;55.068;73.284;2023-04-25T11:18:02;6.00;5.00;3.00
79038;PMS5003;68436;55.068;73.284;2023-04-25T11:20:29;7.00;7.00;5.00
79038;PMS5003;68436;55.068;73.284;2023-04-25T11:23:13;7.00;5.00;3.00
79038;PMS5003;68436;55.068;73.284;2023-04-25T11:25:41;8.00;7.00;5.00
79038;PMS5003;68436;55.068;73.284;2023-04-25T11:28:26;43.67;36.33;24.67
79038;PMS5003;68436;55.068;73.284;2023-04-25T11:30:52;70.25;56.75;35.25
79038;PMS5003;68436;55.068;73.284;2023-04-25T11:33:36;37.00;30.50;19.50
79038;PMS5003;68436;55.068;73.284;2023-04-25T11:36:02;34.00;28.00;17.00
79038;PMS5003;68436;55.068;73.284;2023-04-25T11:38:47;38.50;32.50;21.25
79038;PMS5003;68436;55.068;73.284;2023-04-25T11:41:13;16.00;14.00;10.00
79038;PMS5003;68436;55.068;73.284;2023-04-25T11:43:44;26.00;22.00;15.00
79038;PMS5003;68436;55.068;73.284;2023-04-25T11:46:15;55.25;45.50;30.00
79038;PMS5003;68436;55.068;73.284;2023-04-25T11:48:42;77.00;66.50;42.00
79038;PMS5003;68436;55.068;73.284;2023-04-25T11:51:48;31.00;27.00;18.25
79038;PMS5003;68436;55.068;73.284;2023-04-25T11:54:14;45.00;36.50;24.00
79038;PMS5003;68436;55.068;73.284;2023-04-25T11:56:45;41.50;34.50;22.50
79038;PMS5003;68436;55.068;73.284;2023-04-25T11:59:12;55.00;45.00;28.75
79038;PMS5003;68436;55.068;73.284;2023-04-25T12:01:48;18.00;16.00;11.00
79038;PMS5003;68436;55.068;73.284;2023-04-25T12:06:51;24.75;22.00;15.00
79038;PMS5003;68436;55.068;73.284;2023-04-25T12:09:18;55.50;45.75;30.25
79038;PMS5003;68436;55.068;73.284;2023-04-25T12:11:45;36.00;30.00;19.00
79038;PMS5003;68436;55.068;73.284;2023-04-25T12:14:35;66.00;53.00;37.00
79038;PMS5003;68436;55.068;73.284;2023-04-25T12:17:20;59.33;48.67;33.67
79038;PMS5003;68436;55.068;73.284;2023-04-25T12:19:50;57.00;47.00;31.25
79038;PMS5003;68436;55.068;73.284;2023-04-25T12:22:19;66.00;52.00;35.00
79038;PMS5003;68436;55.068;73.284;2023-04-25T12:24:51;73.00;61.25;40.50
79038;PMS5003;68436;55.068;73.284;2023-04-25T12:27:19;41.33;35.00;23.00
79038;PMS5003;68436;55.068;73.284;2023-04-25T12:29:52;56.75;46.25;30.75
79038;PMS5003;68436;55.068;73.284;2023-04-25T12:32:18;49.00;40.25;26.50
79038;PMS5003;68436;55.068;73.284;2023-04-25T12:34:44;56.50;45.00;28.00
79038;PMS5003;68436;55.068;73.284;2023-04-25T12:37:10;42.75;34.75;22.50
79038;PMS5003;68436;55.068;73.284;2023-04-25T12:39:37;60.75;48.50;31.00
79038;PMS5003;68436;55.068;73.284;2023-04-25T12:42:03;41.33;33.67;23.00
79038;PMS5003;68436;55.068;73.284;2023-04-25T12:44:29;48.00;38.25;24.25
79038;PMS5003;68436;55.068;73.284;2023-04-25T12:46:55;38.67;32.00;21.00
79038;PMS5003;68436;55.068;73.284;2023-04-25T12:49:21;40.75;33.25;21.50
79038;PMS5003;68436;55.068;73.284;2023-04-25T12:51:47;46.67;38.00;24.67
79038;PMS5003;68436;55.068;73.284;2023-04-25T12:54:38;9.00;8.00;6.00
79038;PMS5003;68436;55.068;73.284;2023-04-25T12:57:04;15.50;13.50;9.25
79038;PMS5003;68436;55.068;73.284;2023-04-25T12:59:40;40.00;31.25;19.00
79038;PMS5003;68436;55.068;73.284;2023-04-25T13:02:06;14.25;11.00;6.00
79038;PMS5003;68436;55.068;73.284;2023-04-25T13:04:50;11.00;8.00;6.00
79038;PMS5003;68436;55.068;73.284;2023-04-25T13:07:45;7.50;6.00;4.50
79038;PMS5003;68436;55.068;73.284;2023-04-25T13:10:11;5.00;5.00;3.00
79038;PMS5003;68436;55.068;73.284;2023-04-25T13:12:37;7.00;6.00;4.00
79038;PMS5003;68436;55.068;73.284;2023-04-25T13:15:03;37.00;30.00;18.00
79038;PMS5003;68436;55.068;73.284;2023-04-25T13:17:48;6.00;5.00;4.00
79038;PMS5003;68436;55.068;73.284;2023-04-25T13:22:59;6.00;5.00;3.00
79038;PMS5003;68436;55.068;73.284;2023-04-25T13:25:25;5.00;5.00;3.00
79038;PMS5003;68436;55.068;73.284;2023-04-25T13:27:51;6.33;5.67;4.00
79038;PMS5003;68436;55.068;73.284;2023-04-25T13:30:35;13.75;10.75;7.25
79038;PMS5003;68436;55.068;73.284;2023-04-25T13:33:02;5.00;5.00;3.00
79038;PMS5003;68436;55.068;73.284;2023-04-25T13:35:32;6.00;5.00;4.00
79038;PMS5003;68436;55.068;73.284;2023-04-25T13:38:16;5.00;5.00;3.33
79038;PMS5003;68436;55.068;73.284;2023-04-25T13:40:42;5.00;4.50;3.00
79038;PMS5003;68436;55.068;73.284;2023-04-25T13:46:17;4.00;4.00;3.00
79038;PMS5003;68436;55.068;73.284;2023-04-25T13:51:44;6.00;5.00;3.00
79038;PMS5003;68436;55.068;73.284;2023-04-25T13:54:10;5.00;4.00;3.00
79038;PMS5003;68436;55.068;73.284;2023-04-25T13:56:44;4.00;4.00;3.00
79038;PMS5003;68436;55.068;73.284;2023-04-25T13:59:11;4.00;3.75;3.00
79038;PMS5003;68436;55.068;73.284;2023-04-25T14:01:46;13.00;11.50;7.00
79038;PMS5003;68436;55.068;73.284;2023-04-25T14:04:18;5.00;5.00;4.00
79038;PMS5003;68436;55.068;73.284;2023-04-25T14:06:44;5.00;4.00;3.00
79038;PMS5003;68436;55.068;73.284;2023-04-25T14:12:05;3.67;3.33;2.00
79038;PMS5003;68436;55.068;73.284;2023-04-25T14:14:38;3.00;3.00;2.50
79038;PMS5003;68436;55.068;73.284;2023-04-25T14:17:04;3.75;3.75;2.00
79038;PMS5003;68436;55.068;73.284;2023-04-25T14:19:31;6.00;5.00;3.00
79038;PMS5003;68436;55.068;73.284;2023-04-25T14:22:16;7.00;6.33;5.00
79038;PMS5003;68436;55.068;73.284;2023-04-25T14:25:00;10.00;9.00;7.00
79038;PMS5003;68436;55.068;73.284;2023-04-25T14:27:44;10.00;9.00;7.00
79038;PMS5003;68436;55.068;73.284;2023-04-25T14:30:15;10.00;9.00;6.00
79038;PMS5003;68436;55.068;73.284;2023-04-25T14:33:00;9.00;8.00;5.00
79038;PMS5003;68436;55.068;73.284;2023-04-25T14:38:11;9.00;8.67;6.00
79038;PMS5003;68436;55.068;73.284;2023-04-25T14:40:37;11.00;10.00;7.00
79038;PMS5003;68436;55.068;73.284;2023-04-25T14:43:03;13.00;11.75;8.00
79038;PMS5003;68436;55.068;73.284;2023-04-25T14:45:48;25.25;22.00;14.00
79038;PMS5003;68436;55.068;73.284;2023-04-25T14:48:18;36.00;30.00;20.00
79038;PMS5003;68436;55.068;73.284;2023-04-25T14:51:03;31.75;26.50;17.25
79038;PMS5003;68436;55.068;73.284;2023-04-25T14:53:48;32.00;26.67;18.00
79038;PMS5003;68436;55.068;73.284;2023-04-25T14:56:32;33.00;27.00;19.00
79038;PMS5003;68436;55.068;73.284;2023-04-25T14:59:16;34.75;29.00;19.00
79038;PMS5003;68436;55.068;73.284;2023-04-25T15:01:44;34.00;28.50;19.00
79038;PMS5003;68436;55.068;73.284;2023-04-25T15:04:10;35.00;29.00;20.00
79038;PMS5003;68436;55.068;73.284;2023-04-25T15:06:44;41.50;34.00;22.00
79038;PMS5003;68436;55.068;73.284;2023-04-25T15:09:11;45.00;36.00;22.00
79038;PMS5003;68436;55.068;73.284;2023-04-25T15:11:56;38.33;31.00;20.00
79038;PMS5003;68436;55.068;73.284;2023-04-25T15:14:59;42.00;33.00;21.00
79038;PMS5003;68436;55.068;73.284;2023-04-25T15:17:25;40.00;31.00;20.00
79038;PMS5003;68436;55.068;73.284;2023-04-25T15:19:51;38.00;31.50;21.00
79038;PMS5003;68436;55.068;73.284;2023-04-25T15:22:17;40.00;31.50;19.00
79038;PMS5003;68436;55.068;73.284;2023-04-25T15:28:05;39.00;31.67;20.00
79038;PMS5003;68436;55.068;73.284;2023-04-25T15:30:31;36.00;29.00;19.00
79038;PMS5003;68436;55.068;73.284;2023-04-25T15:32:57;31.33;26.00;18.00
79038;PMS5003;68436;55.068;73.284;2023-04-25T15:35:23;38.00;30.00;19.00
79038;PMS5003;68436;55.068;73.284;2023-04-25T15:37:49;39.75;32.00;21.00
79038;PMS5003;68436;55.068;73.284;2023-04-25T15:40:21;39.00;32.00;20.00
79038;PMS5003;68436;55.068;73.284;2023-04-25T15:43:06;34.00;27.00;18.00
79038;PMS5003;68436;55.068;73.284;2023-04-25T15:45:51;34.00;28.00;19.00
79038;PMS5003;68436;55.068;73.284;2023-04-25T15:48:17;32.33;27.00;18.00
79038;PMS5003;68436;55.068;73.284;2023-04-25T15:50:43;32.00;26.75;17.00
79038;PMS5003;68436;55.068;73.284;2023-04-25T15:53:19;36.33;28.00;17.00
79038;PMS5003;68436;55.068;73.284;2023-04-25T15:56:04;34.00;28.25;17.50
79038;PMS5003;68436;55.068;73.284;2023-04-25T15:58:30;32.00;26.00;17.00
79038;PMS5003;68436;55.068;73.284;2023-04-25T16:01:20;36.25;29.00;18.00
79038;PMS5003;68436;55.068;73.284;2023-04-25T16:03:49;34.00;28.00;18.00
79038;PMS5003;68436;55.068;73.284;2023-04-25T16:09:30;34.00;27.00;18.00
79038;PMS5003;68436;55.068;73.284;2023-04-25T16:12:10;38.00;31.00;21.00
79038;PMS5003;68436;55.068;73.284;2023-04-25T16:15:13;64.25;51.50;33.75
79038;PMS5003;68436;55.068;73.284;2023-04-25T16:17:39;61.25;49.25;32.50
79038;PMS5003;68436;55.068;73.284;2023-04-25T16:20:16;54.50;44.00;29.00
79038;PMS5003;68436;55.068;73.284;2023-04-25T16:22:42;51.00;42.00;27.00
79038;PMS5003;68436;55.068;73.284;2023-04-25T16:25:09;47.00;39.00;26.00
79038;PMS5003;68436;55.068;73.284;2023-04-25T16:27:35;44.00;36.00;24.00
79038;PMS5003;68436;55.068;73.284;2023-04-25T16:30:08;38.00;31.00;21.00
79038;PMS5003;68436;55.068;73.284;2023-04-25T16:35:56;37.25;30.00;19.75
79038;PMS5003;68436;55.068;73.284;2023-04-25T16:38:40;32.00;27.00;17.50
79038;PMS5003;68436;55.068;73.284;2023-04-25T16:41:29;32.00;26.50;18.00
79038;PMS5003;68436;55.068;73.284;2023-04-25T16:44:03;31.25;26.00;16.75
79038;PMS5003;68436;55.068;73.284;2023-04-25T16:46:59;29.33;25.00;16.00
79038;PMS5003;68436;55.068;73.284;2023-04-25T16:49:44;29.25;24.00;16.00
79038;PMS5003;68436;55.068;73.284;2023-04-25T16:52:10;33.00;25.00;16.00
79038;PMS5003;68436;55.068;73.284;2023-04-25T16:54:36;29.00;25.00;16.00
79038;PMS5003;68436;55.068;73.284;2023-04-25T16:57:02;38.00;31.00;20.00
79038;PMS5003;68436;55.068;73.284;2023-04-25T17:02:38;36.33;29.00;19.00
79038;PMS5003;68436;55.068;73.284;2023-04-25T17:05:23;31.25;26.00;16.50
79038;PMS5003;68436;55.068;73.284;2023-04-25T17:10:38;27.00;23.25;16.00
79038;PMS5003;68436;55.068;73.284;2023-04-25T17:13:04;26.00;22.00;15.00
79038;PMS5003;68436;55.068;73.284;2023-04-25T17:15:30;25.00;22.00;15.00
79038;PMS5003;68436;55.068;73.284;2023-04-25T17:17:56;25.00;21.00;13.00
79038;PMS5003;68436;55.068;73.284;2023-04-25T17:23:09;22.00;19.00;13.00
79038;PMS5003;68436;55.068;73.284;2023-04-25T17:25:35;22.75;19.25;12.25
79038;PMS5003;68436;55.068;73.284;2023-04-25T17:28:01;22.00;17.00;11.00
79038;PMS5003;68436;55.068;73.284;2023-04-25T17:30:46;22.00;19.00;12.00
79038;PMS5003;68436;55.068;73.284;2023-04-25T17:33:12;17.00;14.00;9.00
79038;PMS5003;68436;55.068;73.284;2023-04-25T17:35:56;19.00;17.00;11.00
79038;PMS5003;68436;55.068;73.284;2023-04-25T17:38:22;25.50;22.00;14.00
79038;PMS5003;68436;55.068;73.284;2023-04-25T17:40:48;22.25;19.50;12.00
79038;PMS5003;68436;55.068;73.284;2023-04-25T17:43:32;18.33;14.67;9.67
79038;PMS5003;68436;55.068;73.284;2023-04-25T17:46:17;16.50;15.00;10.00
79038;PMS5003;68436;55.068;73.284;2023-04-25T17:48:43;19.00;15.50;10.00
79038;PMS5003;68436;55.068;73.284;2023-04-25T17:51:14;16.25;15.00;10.00
79038;PMS5003;68436;55.068;73.284;2023-04-25T17:53:50;14.33;12.00;9.00
79038;PMS5003;68436;55.068;73.284;2023-04-25T17:56:16;15.00;13.00;8.00
79038;PMS5003;68436;55.068;73.284;2023-04-25T17:58:48;15.00;13.00;8.50
79038;PMS5003;68436;55.068;73.284;2023-04-25T18:01:24;11.25;10.00;7.00
79038;PMS5003;68436;55.068;73.284;2023-04-25T18:03:55;11.00;10.00;7.00
79038;PMS5003;68436;55.068;73.284;2023-04-25T18:09:10;10.50;10.00;7.00
79038;PMS5003;68436;55.068;73.284;2023-04-25T18:11:44;11.00;10.00;7.00
79038;PMS5003;68436;55.068;73.284;2023-04-25T18:14:11;10.00;9.00;6.00
79038;PMS5003;68436;55.068;73.284;2023-04-25T18:16:45;9.00;8.00;6.00
79038;PMS5003;68436;55.068;73.284;2023-04-25T18:19:11;8.00;7.25;5.00
79038;PMS5003;68436;55.068;73.284;2023-04-25T18:21:46;7.00;7.00;5.00
79038;PMS5003;68436;55.068;73.284;2023-04-25T18:24:31;8.00;7.00;5.00
79038;PMS5003;68436;55.068;73.284;2023-04-25T18:27:02;8.00;7.00;5.00
79038;PMS5003;68436;55.068;73.284;2023-04-25T18:29:30;9.00;9.00;5.00
79038;PMS5003;68436;55.068;73.284;2023-04-25T18:31:56;9.75;9.00;5.00
79038;PMS5003;68436;55.068;73.284;2023-04-25T18:34:22;9.00;7.00;5.00
79038;PMS5003;68436;55.068;73.284;2023-04-25T18:36:49;9.60;7.80;5.80
79038;PMS5003;68436;55.068;73.284;2023-04-25T18:39:16;8.00;7.00;5.00
79038;PMS5003;68436;55.068;73.284;2023-04-25T18:41:44;7.00;6.00;5.00
79038;PMS5003;68436;55.068;73.284;2023-04-25T18:44:10;8.00;7.00;5.00
79038;PMS5003;68436;55.068;73.284;2023-04-25T18:46:44;8.50;8.00;5.00
79038;PMS5003;68436;55.068;73.284;2023-04-25T18:49:11;8.00;7.50;5.00
79038;PMS5003;68436;55.068;73.284;2023-04-25T18:51:44;9.00;8.00;5.00
79038;PMS5003;68436;55.068;73.284;2023-04-25T18:56:56;7.50;7.00;6.00
79038;PMS5003;68436;55.068;73.284;2023-04-25T18:59:41;8.25;8.00;6.00
79038;PMS5003;68436;55.068;73.284;2023-04-25T19:02:07;9.00;8.50;6.00
79038;PMS5003;68436;55.068;73.284;2023-04-25T19:04:43;10.00;9.00;6.00
79038;PMS5003;68436;55.068;73.284;2023-04-25T19:07:28;9.00;8.00;6.00
79038;PMS5003;68436;55.068;73.284;2023-04-25T19:12:50;9.00;8.00;6.00
79038;PMS5003;68436;55.068;73.284;2023-04-25T19:15:17;8.00;7.00;5.00
79038;PMS5003;68436;55.068;73.284;2023-04-25T19:17:43;8.00;8.00;5.00
79038;PMS5003;68436;55.068;73.284;2023-04-25T19:20:09;8.75;7.75;5.75
79038;PMS5003;68436;55.068;73.284;2023-04-25T19:22:54;8.00;7.33;5.00
79038;PMS5003;68436;55.068;73.284;2023-04-25T19:25:20;10.00;8.00;5.00
79038;PMS5003;68436;55.068;73.284;2023-04-25T19:27:46;8.00;7.00;5.00
79038;PMS5003;68436;55.068;73.284;2023-04-25T19:30:12;7.50;6.50;4.00
79038;PMS5003;68436;55.068;73.284;2023-04-25T19:32:41;10.00;8.00;4.33
79038;PMS5003;68436;55.068;73.284;2023-04-25T19:35:08;10.00;9.00;6.00
79038;PMS5003;68436;55.068;73.284;2023-04-25T19:37:53;10.00;10.00;7.00
79038;PMS5003;68436;55.068;73.284;2023-04-25T19:40:47;9.00;8.00;6.00
79038;PMS5003;68436;55.068;73.284;2023-04-25T19:43:14;9.00;8.00;6.00
79038;PMS5003;68436;55.068;73.284;2023-04-25T19:45:58;11.50;10.00;6.00
79038;PMS5003;68436;55.068;73.284;2023-04-25T19:48:24;8.00;8.00;5.00
79038;PMS5003;68436;55.068;73.284;2023-04-25T19:50:50;11.00;10.00;7.00
79038;PMS5003;68436;55.068;73.284;2023-04-25T19:53:26;11.00;10.00;7.00
79038;PMS5003;68436;55.068;73.284;2023-04-25T19:55:52;10.00;9.25;6.00
79038;PMS5003;68436;55.068;73.284;2023-04-25T19:58:18;10.50;8.75;5.25
79038;PMS5003;68436;55.068;73.284;2023-04-25T20:01:03;11.00;11.00;7.00
79038;PMS5003;68436;55.068;73.284;2023-04-25T20:03:29;11.00;10.00;6.33
79038;PMS5003;68436;55.068;73.284;2023-04-25T20:08:40;11.00;10.00;7.00
79038;PMS5003;68436;55.068;73.284;2023-04-25T20:11:24;13.00;11.00;7.25
79038;PMS5003;68436;55.068;73.284;2023-04-25T20:13:53;10.00;8.50;6.00
79038;PMS5003;68436;55.068;73.284;2023-04-25T20:16:44;11.00;11.00;8.00
79038;PMS5003;68436;55.068;73.284;2023-04-25T20:19:11;14.00;12.00;8.00
79038;PMS5003;68436;55.068;73.284;2023-04-25T20:21:55;12.67;11.00;9.00
79038;PMS5003;68436;55.068;73.284;2023-04-25T20:27:25;11.00;10.00;8.00
79038;PMS5003;68436;55.068;73.284;2023-04-25T20:30:09;9.50;8.75;6.00
79038;PMS5003;68436;55.068;73.284;2023-04-25T20:32:37;11.00;10.00;6.00
79038;PMS5003;68436;55.068;73.284;2023-04-25T20:35:04;11.00;10.00;7.00
79038;PMS5003;68436;55.068;73.284;2023-04-25T20:37:36;10.67;10.00;7.33
79038;PMS5003;68436;55.068;73.284;2023-04-25T20:40:03;15.00;13.00;8.75
79038;PMS5003;68436;55.068;73.284;2023-04-25T20:42:35;10.00;10.00;7.00
79038;PMS5003;68436;55.068;73.284;2023-04-25T20:45:01;13.00;11.75;8.00
79038;PMS5003;68436;55.068;73.284;2023-04-25T20:47:36;13.00;12.00;8.00
79038;PMS5003;68436;55.068;73.284;2023-04-25T20:50:03;11.25;10.50;8.00
79038;PMS5003;68436;55.068;73.284;2023-04-25T20:52:30;12.00;11.00;8.00
79038;PMS5003;68436;55.068;73.284;2023-04-25T20:54:57;13.00;12.00;8.00
79038;PMS5003;68436;55.068;73.284;2023-04-25T20:57:23;14.00;11.50;8.75
79038;PMS5003;68436;55.068;73.284;2023-04-25T20:59:49;13.00;12.00;8.00
79038;PMS5003;68436;55.068;73.284;2023-04-25T21:02:16;13.00;12.00;7.33
79038;PMS5003;68436;55.068;73.284;2023-04-25T21:04:48;14.00;12.00;9.00
79038;PMS5003;68436;55.068;73.284;2023-04-25T21:07:14;13.00;11.00;8.00
79038;PMS5003;68436;55.068;73.284;2023-04-25T21:10:09;12.00;11.25;7.25
79038;PMS5003;68436;55.068;73.284;2023-04-25T21:18:34;14.50;13.00;9.00
79038;PMS5003;68436;55.068;73.284;2023-04-25T21:21:00;13.25;11.75;8.25
79038;PMS5003;68436;55.068;73.284;2023-04-25T21:23:38;13.00;11.67;7.00
79038;PMS5003;68436;55.068;73.284;2023-04-25T21:26:04;15.00;12.25;7.50
79038;PMS5003;68436;55.068;73.284;2023-04-25T21:31:30;18.25;16.00;10.25
79038;PMS5003;68436;55.068;73.284;2023-04-25T21:33:56;14.00;12.00;8.00
79038;PMS5003;68436;55.068;73.284;2023-04-25T21:36:32;17.75;14.00;9.00
79038;PMS5003;68436;55.068;73.284;2023-04-25T21:38:59;14.67;12.67;9.00
79038;PMS5003;68436;55.068;73.284;2023-04-25T21:41:24;19.00;16.00;11.00
79038;PMS5003;68436;55.068;73.284;2023-04-25T21:43:50;17.00;14.00;10.00
79038;PMS5003;68436;55.068;73.284;2023-04-25T21:46:16;18.00;16.00;10.00
79038;PMS5003;68436;55.068;73.284;2023-04-25T21:48:47;15.00;14.00;10.67
79038;PMS5003;68436;55.068;73.284;2023-04-25T21:51:13;18.25;16.25;11.00
79038;PMS5003;68436;55.068;73.284;2023-04-25T21:53:40;19.00;15.00;9.50
79038;PMS5003;68436;55.068;73.284;2023-04-25T21:56:06;18.00;15.00;11.00
79038;PMS5003;68436;55.068;73.284;2023-04-25T21:58:55;18.67;16.00;11.00
79038;PMS5003;68436;55.068;73.284;2023-04-25T22:01:21;19.00;16.25;12.00
79038;PMS5003;68436;55.068;73.284;2023-04-25T22:03:47;20.67;17.00;10.00
79038;PMS5003;68436;55.068;73.284;2023-04-25T22:06:13;22.25;18.25;12.00
79038;PMS5003;68436;55.068;73.284;2023-04-25T22:08:39;19.67;16.00;11.00
79038;PMS5003;68436;55.068;73.284;2023-04-25T22:11:14;22.00;17.75;11.00
79038;PMS5003;68436;55.068;73.284;2023-04-25T22:13:40;18.00;15.33;10.00
79038;PMS5003;68436;55.068;73.284;2023-04-25T22:16:11;22.75;19.00;11.00
79038;PMS5003;68436;55.068;73.284;2023-04-25T22:18:37;22.33;18.00;12.00
79038;PMS5003;68436;55.068;73.284;2023-04-25T22:21:04;25.00;19.00;12.00
79038;PMS5003;68436;55.068;73.284;2023-04-25T22:23:30;23.00;19.00;12.00
79038;PMS5003;68436;55.068;73.284;2023-04-25T22:26:15;17.00;14.00;9.00
79038;PMS5003;68436;55.068;73.284;2023-04-25T22:28:41;22.00;18.67;12.00
79038;PMS5003;68436;55.068;73.284;2023-04-25T22:31:44;21.20;17.40;11.20
79038;PMS5003;68436;55.068;73.284;2023-04-25T22:34:10;22.00;17.00;12.00
79038;PMS5003;68436;55.068;73.284;2023-04-25T22:36:44;15.50;14.00;9.00
79038;PMS5003;68436;55.068;73.284;2023-04-25T22:39:11;18.00;15.00;10.00
79038;PMS5003;68436;55.068;73.284;2023-04-25T22:41:44;22.00;17.00;12.00
79038;PMS5003;68436;55.068;73.284;2023-04-25T22:44:47;18.75;16.00;11.00
79038;PMS5003;68436;55.068;73.284;2023-04-25T22:52:48;18.67;15.67;10.33
79038;PMS5003;68436;55.068;73.284;2023-04-25T22:55:14;21.00;18.00;12.50
79038;PMS5003;68436;55.068;73.284;2023-04-25T22:57:58;19.50;16.75;11.75
79038;PMS5003;68436;55.068;73.284;2023-04-25T23:00:24;21.00;18.00;11.50
79038;PMS5003;68436;55.068;73.284;2023-04-25T23:03:08;20.00;17.00;11.00
79038;PMS5003;68436;55.068;73.284;2023-04-25T23:05:35;21.00;19.00;14.00
79038;PMS5003;68436;55.068;73.284;2023-04-25T23:08:01;19.25;18.00;12.00
79038;PMS5003;68436;55.068;73.284;2023-04-25T23:10:28;20.00;18.00;13.00
79038;PMS5003;68436;55.068;73.284;2023-04-25T23:12:54;24.50;20.50;12.00
79038;PMS5003;68436;55.068;73.284;2023-04-25T23:15:24;22.00;19.00;14.00
79038;PMS5003;68436;55.068;73.284;2023-04-25T23:17:50;19.25;16.50;10.50
79038;PMS5003;68436;55.068;73.284;2023-04-25T23:20:26;22.50;18.75;13.00
79038;PMS5003;68436;55.068;73.284;2023-04-25T23:22:52;25.67;22.00;14.00
79038;PMS5003;68436;55.068;73.284;2023-04-25T23:28:07;22.00;18.00;12.00
79038;PMS5003;68436;55.068;73.284;2023-04-25T23:30:33;25.00;22.00;15.00
79038;PMS5003;68436;55.068;73.284;2023-04-25T23:32:59;24.00;21.00;13.00
79038;PMS5003;68436;55.068;73.284;2023-04-25T23:35:25;22.00;20.00;14.00
79038;PMS5003;68436;55.068;73.284;2023-04-25T23:37:52;19.50;17.50;12.25
79038;PMS5003;68436;55.068;73.284;2023-04-25T23:40:30;21.75;19.00;11.75
79038;PMS5003;68436;55.068;73.284;2023-04-25T23:43:15;26.00;22.00;14.00
79038;PMS5003;68436;55.068;73.284;2023-04-25T23:45:59;19.50;17.00;12.00
79038;PMS5003;68436;55.068;73.284;2023-04-25T23:48:25;23.00;20.00;13.00
79038;PMS5003;68436;55.068;73.284;2023-04-25T23:50:51;19.75;17.50;11.50
79038;PMS5003;68436;55.068;73.284;2023-04-25T23:53:17;21.00;18.00;12.75
79038;PMS5003;68436;55.068;73.284;2023-04-25T23:56:02;19.50;16.50;11.50
79038;PMS5003;68436;55.068;73.284;2023-04-25T23:58:29;21.00;18.00;12.00
